Time,TemperatureF,DewpointF,PressureIn,WindDirection,WindDirectionDegrees,WindSpeedMPH,WindSpeedGustMPH,Humidity,HourlyPrecipIn,Conditions,Clouds,dailyrainin,SoftwareType,DateUTC
2013-01-04 00:00:00,10.9,2.2,30.30,SSE,168,0.0,0.0,67,0.00,,---,0.00,VWS V14.01,2013-01-04 06:00:00,
2013-01-04 00:06:00,10.8,2.0,30.30,SSE,168,0.0,0.0,67,0.00,,---,0.00,VWS V14.01,2013-01-04 06:06:00,
2013-01-04 00:12:00,10.8,2.0,30.30,South,171,0.0,0.0,67,0.00,,---,0.00,VWS V14.01,2013-01-04 06:12:00,
2013-01-04 00:18:00,10.9,2.2,30.30,South,186,0.0,0.0,67,0.00,,---,0.00,VWS V14.01,2013-01-04 06:18:00,
2013-01-04 00:24:00,11.1,2.3,30.27,SSW,194,0.0,0.0,67,0.00,,---,0.00,VWS V14.01,2013-01-04 06:24:00,
2013-01-04 00:29:00,11.1,2.3,30.27,SSW,198,0.0,0.0,67,0.00,,---,0.00,VWS V14.01,2013-01-04 06:29:00,
2013-01-04 00:34:00,11.3,2.5,30.27,South,185,0.0,10.7,67,0.00,,---,0.00,VWS V14.01,2013-01-04 06:34:00,
2013-01-04 00:40:00,11.7,2.8,30.27,SSW,197,0.0,0.0,67,0.00,,---,0.00,VWS V14.01,2013-01-04 06:40:00,
2013-01-04 00:45:00,11.7,2.8,30.27,SSW,194,0.0,0.0,67,0.00,,---,0.00,VWS V14.01,2013-01-04 06:45:00,
2013-01-04 00:50:00,11.8,3.0,30.27,South,170,6.7,10.7,67,0.00,,---,0.00,VWS V14.01,2013-01-04 06:50:00,
2013-01-04 00:55:00,12.0,3.2,30.27,South,181,0.0,0.0,67,0.00,,---,0.00,VWS V14.01,2013-01-04 06:55:00,
2013-01-04 01:01:00,12.0,3.2,30.27,South,185,0.0,0.0,67,0.00,,---,0.00,VWS V14.01,2013-01-04 07:01:00,
2013-01-04 01:06:00,12.0,3.2,30.27,SSW,201,0.0,0.0,67,0.00,,---,0.00,VWS V14.01,2013-01-04 07:06:00,
2013-01-04 01:11:00,12.2,3.3,30.27,SSE,159,0.0,0.0,67,0.00,,---,0.00,VWS V14.01,2013-01-04 07:11:00,
2013-01-04 01:17:00,12.6,3.7,30.27,WSW,251,0.0,0.0,67,0.00,,---,0.00,VWS V14.01,2013-01-04 07:17:00,
2013-01-04 01:22:00,12.7,3.9,30.27,SSW,199,0.0,9.4,67,0.00,,---,0.00,VWS V14.01,2013-01-04 07:22:00,
2013-01-04 01:28:00,12.9,4.0,30.27,SSW,204,0.0,0.0,67,0.00,,---,0.00,VWS V14.01,2013-01-04 07:28:00,
2013-01-04 01:34:00,13.3,4.4,30.27,South,190,6.7,10.7,67,0.00,,---,0.00,VWS V14.01,2013-01-04 07:34:00,
2013-01-04 01:40:00,13.3,4.4,30.27,SW,217,8.1,16.1,67,0.00,,---,0.00,VWS V14.01,2013-01-04 07:40:00,
2013-01-04 01:45:00,13.5,4.6,30.27,SW,227,6.7,12.1,67,0.00,,---,0.00,VWS V14.01,2013-01-04 07:45:00,
2013-01-04 01:51:00,13.5,4.6,30.27,SSW,208,0.0,12.1,67,0.00,,---,0.00,VWS V14.01,2013-01-04 07:51:00,
2013-01-04 01:56:00,13.5,4.6,30.27,SW,232,0.0,6.7,67,0.00,,---,0.00,VWS V14.01,2013-01-04 07:56:00,
2013-01-04 02:02:00,13.5,4.6,30.27,South,184,0.0,16.1,67,0.00,,---,0.00,VWS V14.01,2013-01-04 08:02:00,
2013-01-04 02:07:00,13.5,4.6,30.27,SSW,204,0.0,0.0,67,0.00,,---,0.00,VWS V14.01,2013-01-04 08:07:00,
2013-01-04 02:13:00,13.5,4.6,30.27,SSW,204,0.0,12.1,67,0.00,,---,0.00,VWS V14.01,2013-01-04 08:13:00,
2013-01-04 02:19:00,13.6,4.7,30.27,SSW,198,6.7,6.7,67,0.00,,---,0.00,VWS V14.01,2013-01-04 08:19:00,
2013-01-04 02:25:00,13.6,4.7,30.27,West,278,0.0,12.1,67,0.00,,---,0.00,VWS V14.01,2013-01-04 08:25:00,
2013-01-04 02:31:00,13.6,4.7,30.27,SSE,167,0.0,0.0,67,0.00,,---,0.00,VWS V14.01,2013-01-04 08:31:00,
2013-01-04 02:36:00,13.6,4.7,30.27,SSW,199,12.1,16.1,67,0.00,,---,0.00,VWS V14.01,2013-01-04 08:36:00,
2013-01-04 02:41:00,13.6,4.7,30.27,SW,236,9.4,9.4,67,0.00,,---,0.00,VWS V14.01,2013-01-04 08:41:00,
2013-01-04 02:46:00,13.8,4.9,30.27,SSW,206,0.0,9.4,67,0.00,,---,0.00,VWS V14.01,2013-01-04 08:46:00,
2013-01-04 02:52:00,14.0,9.3,30.27,SSW,206,0.0,12.1,81,0.00,,---,0.00,VWS V14.01,2013-01-04 08:52:00,
2013-01-04 02:58:00,14.2,9.2,30.27,South,187,10.7,10.7,80,0.00,,---,0.00,VWS V14.01,2013-01-04 08:58:00,
2013-01-04 03:04:00,14.4,9.6,30.27,SSW,192,0.0,9.4,81,0.00,,---,0.00,VWS V14.01,2013-01-04 09:04:00,
2013-01-04 03:10:00,14.5,9.8,30.27,SSW,204,8.1,16.1,81,0.00,,---,0.00,VWS V14.01,2013-01-04 09:10:00,
2013-01-04 03:16:00,14.9,10.1,30.27,WSW,257,0.0,12.1,81,0.00,,---,0.00,VWS V14.01,2013-01-04 09:16:00,
2013-01-04 03:21:00,14.9,10.1,30.24,WSW,247,9.4,9.4,81,0.00,,---,0.00,VWS V14.01,2013-01-04 09:21:00,
2013-01-04 03:26:00,15.1,10.3,30.24,SSW,210,0.0,6.7,81,0.00,,---,0.00,VWS V14.01,2013-01-04 09:26:00,
2013-01-04 03:31:00,15.1,10.3,30.24,SW,216,13.4,13.4,81,0.00,,---,0.00,VWS V14.01,2013-01-04 09:31:00,
2013-01-04 03:37:00,15.3,10.5,30.24,SE,138,0.0,0.0,81,0.00,,---,0.00,VWS V14.01,2013-01-04 09:37:00,
2013-01-04 03:43:00,15.3,10.2,30.24,SSW,210,9.4,10.7,80,0.00,,---,0.00,VWS V14.01,2013-01-04 09:43:00,
2013-01-04 03:49:00,15.4,10.4,30.24,West,279,10.7,10.7,80,0.00,,---,0.00,VWS V14.01,2013-01-04 09:49:00,
2013-01-04 03:55:00,15.4,10.4,30.24,SW,218,0.0,0.0,80,0.00,,---,0.00,VWS V14.01,2013-01-04 09:55:00,
2013-01-04 04:01:00,15.4,10.4,30.24,WSW,239,0.0,9.4,80,0.00,,---,0.00,VWS V14.01,2013-01-04 10:01:00,
2013-01-04 04:06:00,15.3,10.2,30.24,WSW,251,10.7,16.1,80,0.00,,---,0.00,VWS V14.01,2013-01-04 10:06:00,
2013-01-04 04:12:00,15.4,10.4,30.24,SSW,212,8.1,14.8,80,0.00,,---,0.00,VWS V14.01,2013-01-04 10:12:00,
2013-01-04 04:18:00,15.4,10.4,30.24,SW,226,0.0,0.0,80,0.00,,---,0.00,VWS V14.01,2013-01-04 10:18:00,
2013-01-04 04:23:00,15.4,10.4,30.24,SSW,200,0.0,10.7,80,0.00,,---,0.00,VWS V14.01,2013-01-04 10:23:00,
2013-01-04 04:28:00,15.4,10.4,30.24,South,184,0.0,0.0,80,0.00,,---,0.00,VWS V14.01,2013-01-04 10:28:00,
2013-01-04 04:34:00,15.6,10.8,30.24,SSW,206,12.1,14.8,81,0.00,,---,0.00,VWS V14.01,2013-01-04 10:34:00,
2013-01-04 04:39:00,15.8,11.0,30.24,SSW,197,0.0,12.1,81,0.00,,---,0.00,VWS V14.01,2013-01-04 10:39:00,
2013-01-04 04:45:00,15.4,10.7,30.24,SW,221,0.0,0.0,81,0.00,,---,0.00,VWS V14.01,2013-01-04 10:45:00,
2013-01-04 04:51:00,15.4,10.7,30.24,SW,217,12.1,12.1,81,0.00,,---,0.00,VWS V14.01,2013-01-04 10:51:00,
2013-01-04 04:57:00,15.4,10.9,30.24,South,182,0.0,0.0,82,0.00,,---,0.00,VWS V14.01,2013-01-04 10:57:00,
2013-01-04 05:02:00,15.4,10.9,30.24,WSW,242,0.0,8.1,82,0.00,,---,0.00,VWS V14.01,2013-01-04 11:02:00,
2013-01-04 05:07:00,15.4,10.9,30.24,SW,230,0.0,0.0,82,0.00,,---,0.00,VWS V14.01,2013-01-04 11:07:00,
2013-01-04 05:13:00,15.3,10.8,30.24,South,185,0.0,0.0,82,0.00,,---,0.00,VWS V14.01,2013-01-04 11:13:00,
2013-01-04 05:19:00,15.3,10.8,30.24,South,188,0.0,0.0,82,0.00,,---,0.00,VWS V14.01,2013-01-04 11:19:00,
2013-01-04 05:25:00,15.3,10.8,30.24,SSW,212,0.0,0.0,82,0.00,,---,0.00,VWS V14.01,2013-01-04 11:25:00,
2013-01-04 05:30:00,15.1,10.6,30.24,South,180,0.0,0.0,82,0.00,,---,0.00,VWS V14.01,2013-01-04 11:30:00,
2013-01-04 05:36:00,14.9,10.4,30.24,SSW,199,0.0,0.0,82,0.00,,---,0.00,VWS V14.01,2013-01-04 11:36:00,
2013-01-04 05:42:00,14.9,10.7,30.24,SSW,204,0.0,0.0,83,0.00,,---,0.00,VWS V14.01,2013-01-04 11:42:00,
2013-01-04 05:48:00,15.1,10.9,30.24,SSW,196,0.0,9.4,83,0.00,,---,0.00,VWS V14.01,2013-01-04 11:48:00,
2013-01-04 05:53:00,15.4,11.2,30.24,WSW,254,0.0,0.0,83,0.00,,---,0.00,VWS V14.01,2013-01-04 11:53:00,
2013-01-04 05:58:00,15.6,11.7,30.24,SSW,203,0.0,0.0,84,0.00,,---,0.00,VWS V14.01,2013-01-04 11:58:00,
2013-01-04 06:03:00,15.8,11.8,30.24,South,170,0.0,0.0,84,0.00,,---,0.00,VWS V14.01,2013-01-04 12:03:00,
2013-01-04 06:09:00,15.6,11.7,30.24,SW,231,0.0,0.0,84,0.00,,---,0.00,VWS V14.01,2013-01-04 12:09:00,
2013-01-04 06:15:00,15.4,11.8,30.24,South,186,0.0,0.0,85,0.00,,---,0.00,VWS V14.01,2013-01-04 12:15:00,
2013-01-04 06:20:00,15.4,11.8,30.22,South,185,0.0,0.0,85,0.00,,---,0.00,VWS V14.01,2013-01-04 12:20:00,
2013-01-04 06:26:00,15.3,11.6,30.22,South,185,0.0,0.0,85,0.00,,---,0.00,VWS V14.01,2013-01-04 12:26:00,
2013-01-04 06:31:00,15.3,11.6,30.22,SW,220,0.0,0.0,85,0.00,,---,0.00,VWS V14.01,2013-01-04 12:31:00,
2013-01-04 06:36:00,15.3,11.6,30.22,SW,218,0.0,0.0,85,0.00,,---,0.00,VWS V14.01,2013-01-04 12:36:00,
2013-01-04 06:41:00,15.3,11.8,30.22,SW,218,0.0,0.0,86,0.00,,---,0.00,VWS V14.01,2013-01-04 12:41:00,
2013-01-04 06:47:00,15.3,11.8,30.22,SSE,166,0.0,0.0,86,0.00,,---,0.00,VWS V14.01,2013-01-04 12:47:00,
2013-01-04 06:52:00,15.4,12.0,30.22,WSW,241,0.0,0.0,86,0.00,,---,0.00,VWS V14.01,2013-01-04 12:52:00,
2013-01-04 06:58:00,15.4,12.0,30.22,SW,232,0.0,0.0,86,0.00,,---,0.00,VWS V14.01,2013-01-04 12:58:00,
2013-01-04 07:04:00,15.4,12.3,30.22,SSW,202,0.0,0.0,87,0.00,,---,0.00,VWS V14.01,2013-01-04 13:04:00,
2013-01-04 07:09:00,15.6,12.4,30.22,SSW,213,0.0,0.0,87,0.00,,---,0.00,VWS V14.01,2013-01-04 13:09:00,
2013-01-04 07:15:00,15.8,12.6,30.22,SW,217,0.0,0.0,87,0.00,,---,0.00,VWS V14.01,2013-01-04 13:15:00,
2013-01-04 07:21:00,15.8,12.9,30.22,SW,234,0.0,0.0,88,0.00,,---,0.00,VWS V14.01,2013-01-04 13:21:00,
2013-01-04 07:26:00,15.8,12.9,30.22,SW,234,0.0,0.0,88,0.00,,---,0.00,VWS V14.01,2013-01-04 13:26:00,
2013-01-04 07:31:00,15.8,12.9,30.22,SW,234,0.0,0.0,88,0.00,,---,0.00,VWS V14.01,2013-01-04 13:31:00,
2013-01-04 07:36:00,15.8,12.9,30.22,SW,234,0.0,0.0,88,0.00,,---,0.00,VWS V14.01,2013-01-04 13:36:00,
2013-01-04 07:42:00,15.4,12.5,30.22,SW,234,0.0,0.0,88,0.00,,---,0.00,VWS V14.01,2013-01-04 13:42:00,
2013-01-04 07:47:00,15.4,12.5,30.22,SW,225,0.0,0.0,88,0.00,,---,0.00,VWS V14.01,2013-01-04 13:47:00,
2013-01-04 07:53:00,15.8,12.9,30.22,SSW,202,0.0,0.0,88,0.00,,---,0.00,VWS V14.01,2013-01-04 13:53:00,
2013-01-04 07:59:00,15.8,13.1,30.22,SSW,202,0.0,0.0,89,0.00,,---,0.00,VWS V14.01,2013-01-04 13:59:00,
2013-01-04 08:05:00,16.2,13.5,30.22,SSW,196,0.0,0.0,89,0.00,,---,0.00,VWS V14.01,2013-01-04 14:05:00,
2013-01-04 08:10:00,16.9,14.2,30.22,SSW,206,0.0,0.0,89,0.00,,---,0.00,VWS V14.01,2013-01-04 14:10:00,
2013-01-04 08:16:00,17.6,15.2,30.22,SSW,203,9.4,9.4,90,0.00,,---,0.00,VWS V14.01,2013-01-04 14:16:00,
2013-01-04 08:21:00,18.3,15.9,30.22,SSE,163,10.7,10.7,90,0.00,,---,0.00,VWS V14.01,2013-01-04 14:21:00,
2013-01-04 08:27:00,18.9,16.4,30.22,SSW,196,0.0,8.1,90,0.00,,---,0.00,VWS V14.01,2013-01-04 14:27:00,
2013-01-04 08:33:00,19.6,16.9,30.22,WSW,249,0.0,0.0,89,0.00,,---,0.00,VWS V14.01,2013-01-04 14:33:00,
2013-01-04 08:39:00,20.1,17.1,30.22,SSW,197,0.0,0.0,88,0.00,,---,0.00,VWS V14.01,2013-01-04 14:39:00,
2013-01-04 08:44:00,20.7,17.4,30.22,SE,146,0.0,0.0,87,0.00,,---,0.00,VWS V14.01,2013-01-04 14:44:00,
2013-01-04 08:50:00,21.2,17.4,30.22,SSW,211,6.7,10.7,85,0.00,,---,0.00,VWS V14.01,2013-01-04 14:50:00,
2013-01-04 08:55:00,21.9,17.3,30.22,SW,225,6.7,9.4,82,0.00,,---,0.00,VWS V14.01,2013-01-04 14:55:00,
2013-01-04 09:01:00,22.3,16.8,30.22,SSW,208,9.4,9.4,79,0.00,,---,0.00,VWS V14.01,2013-01-04 15:01:00,
2013-01-04 09:07:00,22.8,16.4,30.22,SSW,203,0.0,0.0,76,0.00,,---,0.00,VWS V14.01,2013-01-04 15:07:00,
2013-01-04 09:12:00,23.4,15.7,30.22,West,274,9.4,12.1,72,0.00,,---,0.00,VWS V14.01,2013-01-04 15:12:00,
2013-01-04 09:18:00,23.5,14.9,30.22,WSW,256,0.0,13.4,69,0.00,,---,0.00,VWS V14.01,2013-01-04 15:18:00,
2013-01-04 09:24:00,23.9,15.2,30.22,SSE,158,0.0,12.1,69,0.00,,---,0.00,VWS V14.01,2013-01-04 15:24:00,
2013-01-04 09:29:00,24.3,15.6,30.22,SW,224,0.0,0.0,69,0.00,,---,0.00,VWS V14.01,2013-01-04 15:29:00,
2013-01-04 09:34:00,24.8,15.8,30.22,WSW,241,0.0,8.1,68,0.00,,---,0.00,VWS V14.01,2013-01-04 15:34:00,
2013-01-04 09:39:00,25.2,15.4,30.24,WSW,248,17.4,17.4,66,0.00,,---,0.00,VWS V14.01,2013-01-04 15:39:00,
2013-01-04 09:44:00,25.5,15.4,30.24,West,265,6.7,14.8,65,0.00,,---,0.00,VWS V14.01,2013-01-04 15:44:00,
2013-01-04 09:49:00,25.7,15.2,30.24,SW,235,0.0,0.0,64,0.00,,---,0.00,VWS V14.01,2013-01-04 15:49:00,
2013-01-04 09:55:00,26.1,15.6,30.24,WSW,241,9.4,14.8,64,0.00,,---,0.00,VWS V14.01,2013-01-04 15:55:00,
2013-01-04 10:00:00,26.6,15.4,30.24,West,273,12.1,12.1,62,0.00,,---,0.00,VWS V14.01,2013-01-04 16:00:00,
2013-01-04 10:05:00,26.8,15.1,30.24,West,259,0.0,16.1,61,0.00,,---,0.00,VWS V14.01,2013-01-04 16:05:00,
2013-01-04 10:10:00,27.1,15.1,30.24,SW,226,14.8,18.8,60,0.00,,---,0.00,VWS V14.01,2013-01-04 16:10:00,
2013-01-04 10:16:00,27.7,15.2,30.24,SW,236,12.1,14.8,59,0.00,,---,0.00,VWS V14.01,2013-01-04 16:16:00,
2013-01-04 10:21:00,28.2,15.8,30.24,SW,235,8.1,10.7,59,0.00,,---,0.00,VWS V14.01,2013-01-04 16:21:00,
2013-01-04 10:27:00,28.6,15.3,30.24,West,280,14.8,14.8,57,0.00,,---,0.00,VWS V14.01,2013-01-04 16:27:00,
2013-01-04 10:33:00,29.3,16.0,30.24,WSW,244,16.1,17.4,57,0.00,,---,0.00,VWS V14.01,2013-01-04 16:33:00,
2013-01-04 10:38:00,29.5,15.7,30.24,West,265,10.7,18.8,56,0.00,,---,0.00,VWS V14.01,2013-01-04 16:38:00,
2013-01-04 10:43:00,29.7,15.5,30.24,West,260,17.4,22.8,55,0.00,,---,0.00,VWS V14.01,2013-01-04 16:43:00,
2013-01-04 10:49:00,30.2,16.4,30.24,SSW,209,9.4,10.7,56,0.00,,---,0.00,VWS V14.01,2013-01-04 16:49:00,
2013-01-04 10:54:00,30.7,16.5,30.24,West,265,12.1,12.1,55,0.00,,---,0.00,VWS V14.01,2013-01-04 16:54:00,
2013-01-04 11:00:00,31.5,17.2,30.24,SSW,196,9.4,9.4,55,0.00,,---,0.00,VWS V14.01,2013-01-04 17:00:00,
2013-01-04 11:06:00,32.0,17.2,30.24,SSW,213,0.0,6.7,54,0.00,,---,0.00,VWS V14.01,2013-01-04 17:06:00,
2013-01-04 11:12:00,32.2,17.4,30.24,SW,218,16.1,21.5,54,0.00,,---,0.00,VWS V14.01,2013-01-04 17:12:00,
2013-01-04 11:17:00,32.2,17.4,30.24,WSW,257,24.2,24.2,54,0.00,,---,0.00,VWS V14.01,2013-01-04 17:17:00,
2013-01-04 11:22:00,32.4,17.6,30.22,South,182,18.8,18.8,54,0.00,,---,0.00,VWS V14.01,2013-01-04 17:22:00,
2013-01-04 11:28:00,32.5,17.3,30.22,South,180,10.7,17.4,53,0.00,,---,0.00,VWS V14.01,2013-01-04 17:28:00,
2013-01-04 11:34:00,33.1,18.3,30.22,ENE,59,6.7,10.7,54,0.00,,---,0.00,VWS V14.01,2013-01-04 17:34:00,
2013-01-04 11:40:00,32.9,17.7,30.22,SW,232,0.0,14.8,53,0.00,,---,0.00,VWS V14.01,2013-01-04 17:40:00,
2013-01-04 11:45:00,33.3,18.0,30.22,SE,139,18.8,18.8,53,0.00,,---,0.00,VWS V14.01,2013-01-04 17:45:00,
2013-01-04 11:51:00,33.4,18.2,30.22,SSW,205,12.1,17.4,53,0.00,,---,0.00,VWS V14.01,2013-01-04 17:51:00,
2013-01-04 11:56:00,33.4,18.2,30.22,South,183,16.1,16.1,53,0.00,,---,0.00,VWS V14.01,2013-01-04 17:56:00,
2013-01-04 12:02:00,33.8,18.5,30.22,South,185,10.7,12.1,53,0.00,,---,0.00,VWS V14.01,2013-01-04 18:02:00,
2013-01-04 12:08:00,34.0,18.7,30.22,South,171,17.4,21.5,53,0.00,,---,0.00,VWS V14.01,2013-01-04 18:08:00,
2013-01-04 12:13:00,33.8,18.5,30.22,WSW,254,8.1,9.4,53,0.00,,---,0.00,VWS V14.01,2013-01-04 18:13:00,
2013-01-04 12:19:00,33.8,18.5,30.22,SSW,196,18.8,18.8,53,0.00,,---,0.00,VWS V14.01,2013-01-04 18:19:00,
2013-01-04 12:24:00,33.8,18.5,30.22,SW,222,9.4,18.8,53,0.00,,---,0.00,VWS V14.01,2013-01-04 18:24:00,
2013-01-04 12:30:00,34.0,18.7,30.22,WSW,241,9.4,18.8,53,0.00,,---,0.00,VWS V14.01,2013-01-04 18:30:00,
2013-01-04 12:35:00,34.2,18.8,30.19,SW,231,14.8,16.1,53,0.00,,---,0.00,VWS V14.01,2013-01-04 18:35:00,
2013-01-04 12:41:00,34.2,18.8,30.19,South,185,8.1,14.8,53,0.00,,---,0.00,VWS V14.01,2013-01-04 18:41:00,
2013-01-04 12:47:00,34.5,19.2,30.19,WSW,239,10.7,17.4,53,0.00,,---,0.00,VWS V14.01,2013-01-04 18:47:00,
2013-01-04 12:53:00,34.5,18.7,30.19,SW,222,14.8,18.8,52,0.00,,---,0.00,VWS V14.01,2013-01-04 18:53:00,
2013-01-04 12:59:00,34.5,18.7,30.19,SW,223,10.7,22.8,52,0.00,,---,0.00,VWS V14.01,2013-01-04 18:59:00,
2013-01-04 13:04:00,34.9,19.5,30.19,West,268,17.4,17.4,53,0.00,,---,0.00,VWS V14.01,2013-01-04 19:04:00,
2013-01-04 13:10:00,35.2,18.9,30.19,SSW,197,14.8,21.5,51,0.00,,---,0.00,VWS V14.01,2013-01-04 19:10:00,
2013-01-04 13:15:00,35.1,18.8,30.19,WSW,244,9.4,12.1,51,0.00,,---,0.00,VWS V14.01,2013-01-04 19:15:00,
2013-01-04 13:21:00,35.2,19.4,30.19,South,181,9.4,17.4,52,0.00,,---,0.00,VWS V14.01,2013-01-04 19:21:00,
2013-01-04 13:26:00,35.4,19.1,30.19,SSW,204,10.7,17.4,51,0.00,,---,0.00,VWS V14.01,2013-01-04 19:26:00,
2013-01-04 13:31:00,35.6,19.3,30.19,West,271,12.1,17.4,51,0.00,,---,0.00,VWS V14.01,2013-01-04 19:31:00,
2013-01-04 13:37:00,36.0,19.1,30.19,SW,220,14.8,14.8,50,0.00,,---,0.00,VWS V14.01,2013-01-04 19:37:00,
2013-01-04 13:43:00,36.1,19.3,30.19,WNW,292,0.0,12.1,50,0.00,,---,0.00,VWS V14.01,2013-01-04 19:43:00,
2013-01-04 13:48:00,36.3,19.5,30.19,West,279,12.1,17.4,50,0.00,,---,0.00,VWS V14.01,2013-01-04 19:48:00,
2013-01-04 13:54:00,36.5,19.6,30.19,East,88,8.1,24.2,50,0.00,,---,0.00,VWS V14.01,2013-01-04 19:54:00,
2013-01-04 14:00:00,36.3,19.5,30.19,WSW,252,17.4,17.4,50,0.00,,---,0.00,VWS V14.01,2013-01-04 20:00:00,
2013-01-04 14:05:00,36.9,20.0,30.19,South,189,18.8,24.2,50,0.00,,---,0.00,VWS V14.01,2013-01-04 20:05:00,
2013-01-04 14:10:00,37.2,20.3,30.19,South,169,10.7,16.1,50,0.00,,---,0.00,VWS V14.01,2013-01-04 20:10:00,
2013-01-04 14:15:00,37.0,19.7,30.19,SSW,207,12.1,17.4,49,0.00,,---,0.00,VWS V14.01,2013-01-04 20:15:00,
2013-01-04 14:20:00,37.0,19.7,30.19,WNW,287,9.4,16.1,49,0.00,,---,0.00,VWS V14.01,2013-01-04 20:20:00,
2013-01-04 14:26:00,37.6,20.2,30.19,SW,228,6.7,10.7,49,0.00,,---,0.00,VWS V14.01,2013-01-04 20:26:00,
2013-01-04 14:31:00,38.1,20.7,30.19,SSW,210,6.7,10.7,49,0.00,,---,0.00,VWS V14.01,2013-01-04 20:31:00,
2013-01-04 14:36:00,38.7,20.7,30.19,SSW,192,8.1,8.1,48,0.00,,---,0.00,VWS V14.01,2013-01-04 20:36:00,
2013-01-04 14:42:00,38.7,20.7,30.19,West,267,12.1,12.1,48,0.00,,---,0.00,VWS V14.01,2013-01-04 20:42:00,
2013-01-04 14:48:00,38.5,20.0,30.19,SSW,203,0.0,9.4,47,0.00,,---,0.00,VWS V14.01,2013-01-04 20:48:00,
2013-01-04 14:54:00,38.7,20.7,30.19,SSE,164,8.1,12.1,48,0.00,,---,0.00,VWS V14.01,2013-01-04 20:54:00,
2013-01-04 15:00:00,38.5,20.0,30.19,WSW,246,17.4,17.4,47,0.00,,---,0.00,VWS V14.01,2013-01-04 21:00:00,
2013-01-04 15:05:00,38.3,20.4,30.19,SW,226,0.0,12.1,48,0.00,,---,0.00,VWS V14.01,2013-01-04 21:05:00,
2013-01-04 15:11:00,38.5,20.5,30.19,SW,219,8.1,10.7,48,0.00,,---,0.00,VWS V14.01,2013-01-04 21:11:00,
2013-01-04 15:16:00,38.5,20.5,30.19,SW,230,6.7,9.4,48,0.00,,---,0.00,VWS V14.01,2013-01-04 21:16:00,
2013-01-04 15:22:00,38.5,20.5,30.19,South,191,10.7,10.7,48,0.00,,---,0.00,VWS V14.01,2013-01-04 21:22:00,
2013-01-04 15:28:00,37.9,20.0,30.19,SW,214,16.1,16.1,48,0.00,,---,0.00,VWS V14.01,2013-01-04 21:28:00,
2013-01-04 15:33:00,37.6,19.7,30.19,SSW,212,9.4,9.4,48,0.00,,---,0.00,VWS V14.01,2013-01-04 21:33:00,
2013-01-04 15:38:00,37.4,20.0,30.19,SSW,205,9.4,21.5,49,0.00,,---,0.00,VWS V14.01,2013-01-04 21:38:00,
2013-01-04 15:43:00,37.2,20.3,30.19,SSW,212,12.1,12.1,50,0.00,,---,0.00,VWS V14.01,2013-01-04 21:43:00,
2013-01-04 15:49:00,37.0,20.1,30.19,SW,218,18.8,18.8,50,0.00,,---,0.00,VWS V14.01,2013-01-04 21:49:00,
2013-01-04 15:54:00,36.9,20.0,30.19,SSW,194,0.0,9.4,50,0.00,,---,0.00,VWS V14.01,2013-01-04 21:54:00,
2013-01-04 16:00:00,36.7,20.3,30.19,West,267,12.1,14.8,51,0.00,,---,0.00,VWS V14.01,2013-01-04 22:00:00,
2013-01-04 16:05:00,36.3,20.4,30.19,SSE,166,10.7,16.1,52,0.00,,---,0.00,VWS V14.01,2013-01-04 22:05:00,
2013-01-04 16:11:00,36.1,20.2,30.19,South,190,0.0,6.7,52,0.00,,---,0.00,VWS V14.01,2013-01-04 22:11:00,
2013-01-04 16:16:00,35.8,19.9,30.19,SSW,203,0.0,0.0,52,0.00,,---,0.00,VWS V14.01,2013-01-04 22:16:00,
2013-01-04 16:22:00,35.6,20.2,30.19,SE,146,0.0,0.0,53,0.00,,---,0.00,VWS V14.01,2013-01-04 22:22:00,
2013-01-04 16:28:00,35.2,19.8,30.19,SSW,209,0.0,0.0,53,0.00,,---,0.00,VWS V14.01,2013-01-04 22:28:00,
2013-01-04 16:33:00,34.9,19.5,30.19,SSW,204,10.7,10.7,53,0.00,,---,0.00,VWS V14.01,2013-01-04 22:33:00,
2013-01-04 16:39:00,34.7,19.8,30.19,SW,227,0.0,8.1,54,0.00,,---,0.00,VWS V14.01,2013-01-04 22:39:00,
2013-01-04 16:44:00,34.5,19.6,30.19,South,185,0.0,0.0,54,0.00,,---,0.00,VWS V14.01,2013-01-04 22:44:00,
2013-01-04 16:49:00,34.3,19.4,30.19,WSW,243,8.1,8.1,54,0.00,,---,0.00,VWS V14.01,2013-01-04 22:49:00,
2013-01-04 16:55:00,34.0,19.1,30.19,West,275,0.0,0.0,54,0.00,,---,0.00,VWS V14.01,2013-01-04 22:55:00,
2013-01-04 17:00:00,33.8,18.9,30.19,SSE,164,14.8,14.8,54,0.00,,---,0.00,VWS V14.01,2013-01-04 23:00:00,
2013-01-04 17:06:00,33.6,19.2,30.19,WSW,248,0.0,0.0,55,0.00,,---,0.00,VWS V14.01,2013-01-04 23:06:00,
2013-01-04 17:12:00,33.3,18.9,30.19,SSE,147,6.7,6.7,55,0.00,,---,0.00,VWS V14.01,2013-01-04 23:12:00,
2013-01-04 17:17:00,33.1,19.1,30.19,SSW,203,0.0,0.0,56,0.00,,---,0.00,VWS V14.01,2013-01-04 23:17:00,
2013-01-04 17:22:00,32.9,18.9,30.19,SSW,210,0.0,0.0,56,0.00,,---,0.00,VWS V14.01,2013-01-04 23:22:00,
2013-01-04 17:27:00,32.5,18.6,30.19,WSW,247,0.0,0.0,56,0.00,,---,0.00,VWS V14.01,2013-01-04 23:27:00,
2013-01-04 17:33:00,32.0,18.1,30.19,WSW,237,0.0,0.0,56,0.00,,---,0.00,VWS V14.01,2013-01-04 23:33:00,
2013-01-04 17:38:00,31.6,18.2,30.19,SW,233,0.0,0.0,57,0.00,,---,0.00,VWS V14.01,2013-01-04 23:38:00,
2013-01-04 17:44:00,31.1,17.7,30.19,SW,229,0.0,0.0,57,0.00,,---,0.00,VWS V14.01,2013-01-04 23:44:00,
2013-01-04 17:49:00,30.7,17.3,30.19,SW,218,0.0,0.0,57,0.00,,---,0.00,VWS V14.01,2013-01-04 23:49:00,
2013-01-04 17:55:00,30.2,17.2,30.19,SW,218,0.0,0.0,58,0.00,,---,0.00,VWS V14.01,2013-01-04 23:55:00,
2013-01-04 18:00:00,30.2,18.0,30.19,SSW,200,0.0,0.0,60,0.00,,---,0.00,VWS V14.01,2013-01-05 00:00:00,
2013-01-04 18:05:00,30.2,18.0,30.19,SSW,200,0.0,0.0,60,0.00,,---,0.00,VWS V14.01,2013-01-05 00:05:00,
2013-01-04 18:11:00,30.2,18.0,30.19,SSW,200,0.0,0.0,60,0.00,,---,0.00,VWS V14.01,2013-01-05 00:11:00,
2013-01-04 18:16:00,30.0,18.2,30.19,SSW,200,0.0,0.0,61,0.00,,---,0.00,VWS V14.01,2013-01-05 00:16:00,
2013-01-04 18:22:00,30.0,18.2,30.19,SSW,200,0.0,0.0,61,0.00,,---,0.00,VWS V14.01,2013-01-05 00:22:00,
2013-01-04 18:28:00,29.7,17.9,30.19,SSW,200,0.0,0.0,61,0.00,,---,0.00,VWS V14.01,2013-01-05 00:28:00,
2013-01-04 18:33:00,29.3,17.5,30.19,SSW,200,0.0,0.0,61,0.00,,---,0.00,VWS V14.01,2013-01-05 00:33:00,
2013-01-04 18:38:00,28.9,17.6,30.19,SSW,200,0.0,0.0,62,0.00,,---,0.00,VWS V14.01,2013-01-05 00:38:00,
2013-01-04 18:43:00,28.9,17.6,30.19,SSW,200,0.0,0.0,62,0.00,,---,0.00,VWS V14.01,2013-01-05 00:43:00,
2013-01-04 18:48:00,28.9,17.9,30.19,SW,218,0.0,0.0,63,0.00,,---,0.00,VWS V14.01,2013-01-05 00:48:00,
2013-01-04 18:54:00,28.8,17.8,30.19,SW,219,0.0,0.0,63,0.00,,---,0.00,VWS V14.01,2013-01-05 00:54:00,
2013-01-04 19:00:00,29.1,18.5,30.19,SSW,198,0.0,0.0,64,0.00,,---,0.00,VWS V14.01,2013-01-05 01:00:00,
2013-01-04 19:06:00,29.5,18.8,30.19,SSW,198,0.0,0.0,64,0.00,,---,0.00,VWS V14.01,2013-01-05 01:06:00,
2013-01-04 19:12:00,29.1,18.5,30.19,SSW,198,0.0,0.0,64,0.00,,---,0.00,VWS V14.01,2013-01-05 01:12:00,
2013-01-04 19:17:00,29.3,18.6,30.19,SSW,198,0.0,0.0,64,0.00,,---,0.00,VWS V14.01,2013-01-05 01:17:00,
2013-01-04 19:22:00,29.3,18.6,30.19,SSW,198,0.0,0.0,64,0.00,,---,0.00,VWS V14.01,2013-01-05 01:22:00,
2013-01-04 19:27:00,29.1,18.5,30.19,SSW,198,0.0,0.0,64,0.00,,---,0.00,VWS V14.01,2013-01-05 01:27:00,
2013-01-04 19:33:00,28.9,18.3,30.19,SSW,198,0.0,0.0,64,0.00,,---,0.00,VWS V14.01,2013-01-05 01:33:00,
2013-01-04 19:38:00,28.8,18.1,30.19,SSW,198,0.0,0.0,64,0.00,,---,0.00,VWS V14.01,2013-01-05 01:38:00,
2013-01-04 19:44:00,28.4,17.8,30.19,SSW,198,0.0,0.0,64,0.00,,---,0.00,VWS V14.01,2013-01-05 01:44:00,
2013-01-04 19:49:00,28.2,18.0,30.19,SSW,198,0.0,0.0,65,0.00,,---,0.00,VWS V14.01,2013-01-05 01:49:00,
2013-01-04 19:54:00,28.0,17.8,30.19,SSW,198,0.0,0.0,65,0.00,,---,0.00,VWS V14.01,2013-01-05 01:54:00,
2013-01-04 19:59:00,27.9,17.6,30.19,SSW,198,0.0,0.0,65,0.00,,---,0.00,VWS V14.01,2013-01-05 01:59:00,
2013-01-04 20:05:00,27.7,17.5,30.19,SSW,198,0.0,0.0,65,0.00,,---,0.00,VWS V14.01,2013-01-05 02:05:00,
2013-01-04 20:11:00,27.9,18.0,30.19,SSW,198,0.0,0.0,66,0.00,,---,0.00,VWS V14.01,2013-01-05 02:11:00,
2013-01-04 20:16:00,27.9,18.0,30.19,South,188,0.0,0.0,66,0.00,,---,0.00,VWS V14.01,2013-01-05 02:16:00,
2013-01-04 20:22:00,27.9,18.0,30.19,SSW,203,0.0,0.0,66,0.00,,---,0.00,VWS V14.01,2013-01-05 02:22:00,
2013-01-04 20:27:00,28.0,18.2,30.19,SSW,200,0.0,0.0,66,0.00,,---,0.00,VWS V14.01,2013-01-05 02:27:00,
2013-01-04 20:33:00,28.2,18.3,30.19,SSW,196,0.0,0.0,66,0.00,,---,0.00,VWS V14.01,2013-01-05 02:33:00,
2013-01-04 20:39:00,28.2,18.3,30.19,South,186,0.0,0.0,66,0.00,,---,0.00,VWS V14.01,2013-01-05 02:39:00,
2013-01-04 20:44:00,28.2,18.3,30.19,South,186,0.0,0.0,66,0.00,,---,0.00,VWS V14.01,2013-01-05 02:44:00,
2013-01-04 20:50:00,28.2,18.3,30.19,SSW,208,0.0,0.0,66,0.00,,---,0.00,VWS V14.01,2013-01-05 02:50:00,
2013-01-04 20:56:00,28.4,18.5,30.19,SSW,199,0.0,0.0,66,0.00,,---,0.00,VWS V14.01,2013-01-05 02:56:00,
2013-01-04 21:02:00,28.4,18.5,30.19,SSW,210,6.7,9.4,66,0.00,,---,0.00,VWS V14.01,2013-01-05 03:02:00,
2013-01-04 21:08:00,28.4,18.5,30.19,South,189,0.0,0.0,66,0.00,,---,0.00,VWS V14.01,2013-01-05 03:08:00,
2013-01-04 21:14:00,28.2,18.3,30.19,WSW,237,12.1,14.8,66,0.00,,---,0.00,VWS V14.01,2013-01-05 03:14:00,
2013-01-04 21:20:00,28.2,18.3,30.19,SSW,205,8.1,9.4,66,0.00,,---,0.00,VWS V14.01,2013-01-05 03:20:00,
2013-01-04 21:26:00,28.2,18.7,30.19,WSW,239,9.4,18.8,67,0.00,,---,0.00,VWS V14.01,2013-01-05 03:26:00,
2013-01-04 21:32:00,28.4,18.9,30.19,SW,236,0.0,0.0,67,0.00,,---,0.00,VWS V14.01,2013-01-05 03:32:00,
2013-01-04 21:37:00,28.2,18.7,30.19,South,189,0.0,0.0,67,0.00,,---,0.00,VWS V14.01,2013-01-05 03:37:00,
2013-01-04 21:43:00,28.2,18.7,30.19,South,169,0.0,0.0,67,0.00,,---,0.00,VWS V14.01,2013-01-05 03:43:00,
2013-01-04 21:48:00,28.2,18.7,30.19,SE,136,0.0,0.0,67,0.00,,---,0.00,VWS V14.01,2013-01-05 03:48:00,
2013-01-04 21:54:00,28.2,18.7,30.19,ESE,121,0.0,0.0,67,0.00,,---,0.00,VWS V14.01,2013-01-05 03:54:00,
2013-01-04 21:59:00,28.0,18.5,30.19,SSE,151,0.0,0.0,67,0.00,,---,0.00,VWS V14.01,2013-01-05 03:59:00,
2013-01-04 22:04:00,27.9,18.3,30.19,SE,146,0.0,0.0,67,0.00,,---,0.00,VWS V14.01,2013-01-05 04:04:00,
2013-01-04 22:10:00,27.7,18.2,30.19,South,185,0.0,0.0,67,0.00,,---,0.00,VWS V14.01,2013-01-05 04:10:00,
2013-01-04 22:15:00,27.7,18.2,30.19,SSE,153,0.0,0.0,67,0.00,,---,0.00,VWS V14.01,2013-01-05 04:15:00,
2013-01-04 22:21:00,27.7,18.5,30.19,SE,125,0.0,0.0,68,0.00,,---,0.00,VWS V14.01,2013-01-05 04:21:00,
2013-01-04 22:26:00,27.7,18.5,30.19,South,187,0.0,0.0,68,0.00,,---,0.00,VWS V14.01,2013-01-05 04:26:00,
2013-01-04 22:31:00,27.5,18.3,30.19,SSE,155,0.0,0.0,68,0.00,,---,0.00,VWS V14.01,2013-01-05 04:31:00,
2013-01-04 22:37:00,27.5,18.3,30.19,SSW,210,0.0,0.0,68,0.00,,---,0.00,VWS V14.01,2013-01-05 04:37:00,
2013-01-04 22:42:00,27.3,18.2,30.19,South,176,0.0,0.0,68,0.00,,---,0.00,VWS V14.01,2013-01-05 04:42:00,
2013-01-04 22:48:00,27.0,17.8,30.19,South,176,0.0,0.0,68,0.00,,---,0.00,VWS V14.01,2013-01-05 04:48:00,
2013-01-04 22:53:00,26.8,18.0,30.16,SSW,203,0.0,0.0,69,0.00,,---,0.00,VWS V14.01,2013-01-05 04:53:00,
2013-01-04 22:58:00,26.8,18.0,30.16,SE,136,0.0,0.0,69,0.00,,---,0.00,VWS V14.01,2013-01-05 04:58:00,
2013-01-04 23:01:00,26.8,18.0,30.16,SE,136,0.0,0.0,69,0.00,,---,0.00,VWS V14.01,2013-01-05 05:01:00,
2013-01-04 23:02:00,26.8,18.0,30.16,SE,136,0.0,0.0,69,0.00,,---,0.00,VWS V14.01,2013-01-05 05:02:00,
2013-01-04 23:07:00,26.6,18.1,30.16,South,175,0.0,0.0,70,0.00,,---,0.00,VWS V14.01,2013-01-05 05:07:00,
2013-01-04 23:08:00,26.6,18.1,30.16,South,175,0.0,0.0,70,0.00,,---,0.00,VWS V14.01,2013-01-05 05:08:00,
2013-01-04 23:14:00,26.4,18.0,30.16,South,175,0.0,0.0,70,0.00,,---,0.00,VWS V14.01,2013-01-05 05:14:00,
2013-01-04 23:20:00,26.1,17.6,30.16,South,175,0.0,0.0,70,0.00,,---,0.00,VWS V14.01,2013-01-05 05:20:00,
2013-01-04 23:25:00,26.1,17.6,30.16,South,174,0.0,0.0,70,0.00,,---,0.00,VWS V14.01,2013-01-05 05:25:00,
2013-01-04 23:30:00,26.1,18.0,30.16,SE,135,0.0,0.0,71,0.00,,---,0.00,VWS V14.01,2013-01-05 05:30:00,
2013-01-04 23:35:00,26.1,18.0,30.16,SE,135,0.0,0.0,71,0.00,,---,0.00,VWS V14.01,2013-01-05 05:35:00,
2013-01-04 23:41:00,25.9,17.8,30.16,SE,135,0.0,0.0,71,0.00,,---,0.00,VWS V14.01,2013-01-05 05:41:00,
2013-01-04 23:46:00,25.7,17.6,30.16,SE,135,0.0,0.0,71,0.00,,---,0.00,VWS V14.01,2013-01-05 05:46:00,
2013-01-04 23:52:00,25.3,17.3,30.16,SSE,164,0.0,0.0,71,0.00,,---,0.00,VWS V14.01,2013-01-05 05:52:00,
2013-01-04 23:57:00,25.0,17.2,30.16,SSE,155,0.0,0.0,72,0.00,,---,0.00,VWS V14.01,2013-01-05 05:57:00,